Austinville, Pennsylvania
Current Conditions -  °F | °C
As of 8:53 PM on Friday 31 Oct 2014 (Local Time) from KELM Reporting Station
Overcast Overcast  
Wind Chill:   Ceiling: 7000
Heat Index:   Visibility: 10mi
Dew Point:   Wind: 5mph
Humidity: 63%   Direction: 30°NNE
Pressure: 29.92"   Gusts: NA
Location:  41.8495°N, 76.7925°W
Report Text: KELM 010053Z 03004KT 10SM FEW046 SCT055 OVC070 08/02 A2992 RMK AO2 SLP138 T00830017 $
Loading
Personal Weather Stations






























Interactive Weather Map
Tropical Storm Tracking
New forecast layout! Learn more

10-Day Weather Forecast

Advertisements
Track Severe Weather on mobile